Time;durP1;ratioP1;P1;durP2;ratioP2;P2;SDS_P1;SDS_P2;PMS_P1;PMS_P2;Temp;Humidity;BMP_temperature;BMP_pressure;BME280_temperature;BME280_humidity;BME280_pressure;Samples;Min_cycle;Max_cycle;Signal;HPM_P1;HPM_P2
2021/01/08 00:00:27;;;;;;;3.90;2.67;;;0.90;99.90;;;;;;5073714;28;20595;-62
2021/01/08 00:02:54;;;;;;;4.57;2.70;;;0.90;99.90;;;;;;5073310;28;20206;-63
2021/01/08 00:05:21;;;;;;;5.33;3.23;;;0.90;99.90;;;;;;5073476;28;20199;-63
2021/01/08 00:07:47;;;;;;;5.17;2.93;;;0.80;99.90;;;;;;5072944;28;20222;-64
2021/01/08 00:10:13;;;;;;;6.17;2.93;;;0.80;99.90;;;;;;5073135;28;20267;-63
2021/01/08 00:12:40;;;;;;;5.37;3.00;;;0.90;99.90;;;;;;5072685;28;20226;-63
2021/01/08 00:15:07;;;;;;;4.40;2.90;;;0.90;99.90;;;;;;5072660;28;20625;-60
2021/01/08 00:17:35;;;;;;;4.60;2.90;;;0.90;99.90;;;;;;5052889;28;20200;-62
2021/01/08 00:20:02;;;;;;;4.40;2.90;;;0.90;99.90;;;;;;5070242;28;20275;-63
2021/01/08 00:22:28;;;;;;;4.30;2.87;;;0.90;99.90;;;;;;5073251;28;20195;-63
2021/01/08 00:24:55;;;;;;;4.03;2.80;;;0.90;99.90;;;;;;5073018;28;20190;-63
2021/01/08 00:27:23;;;;;;;4.73;3.10;;;0.90;99.90;;;;;;5072758;28;20226;-64
2021/01/08 00:29:50;;;;;;;4.97;3.13;;;0.90;99.90;;;;;;5072506;28;20317;-63
2021/01/08 00:32:17;;;;;;;4.60;2.93;;;0.90;99.90;;;;;;5072120;28;20278;-60
2021/01/08 00:34:45;;;;;;;4.53;3.00;;;0.90;99.90;;;;;;5072549;28;20254;-61
2021/01/08 00:37:11;;;;;;;4.67;3.20;;;0.90;99.90;;;;;;5072983;28;20198;-66
2021/01/08 00:39:39;;;;;;;6.57;3.07;;;0.80;99.90;;;;;;5072940;28;20207;-64
2021/01/08 00:42:06;;;;;;;4.90;3.00;;;0.80;99.90;;;;;;5072234;28;20555;-62
2021/01/08 00:44:33;;;;;;;4.40;2.77;;;0.80;99.90;;;;;;5073213;28;20237;-63
2021/01/08 00:47:00;;;;;;;3.87;2.73;;;0.90;99.90;;;;;;5072270;28;20273;-63
2021/01/08 00:49:26;;;;;;;3.97;2.77;;;0.90;99.90;;;;;;5072642;28;20222;-62
2021/01/08 00:51:53;;;;;;;4.80;2.73;;;0.90;99.90;;;;;;5072641;28;20348;-66
2021/01/08 00:54:20;;;;;;;5.00;3.10;;;0.90;99.90;;;;;;5072338;28;20268;-63
2021/01/08 00:56:47;;;;;;;4.47;3.00;;;0.90;99.90;;;;;;5072122;28;20221;-63
2021/01/08 00:59:13;;;;;;;3.70;2.37;;;0.90;99.90;;;;;;5072988;28;20274;-61
2021/01/08 01:01:40;;;;;;;3.87;2.80;;;0.90;99.90;;;;;;5072749;28;20195;-62
2021/01/08 01:04:06;;;;;;;4.27;2.90;;;0.80;99.90;;;;;;5071977;28;20280;-62
2021/01/08 01:06:34;;;;;;;4.93;3.07;;;0.90;99.90;;;;;;5071356;28;20234;-64
2021/01/08 01:09:02;;;;;;;3.73;2.30;;;0.80;99.90;;;;;;5072074;28;20631;-66
2021/01/08 01:11:29;;;;;;;3.40;2.60;;;0.80;99.90;;;;;;5072460;28;20334;-63
2021/01/08 01:13:57;;;;;;;3.57;2.60;;;0.80;99.90;;;;;;5071919;28;20250;-64
2021/01/08 01:16:25;;;;;;;4.17;2.80;;;0.90;99.90;;;;;;5071691;28;20301;-63
2021/01/08 01:18:54;;;;;;;5.17;3.07;;;0.90;99.90;;;;;;5072332;28;20269;-63
2021/01/08 01:21:20;;;;;;;5.00;2.63;;;0.80;99.90;;;;;;5071587;28;20235;-63
2021/01/08 01:23:47;;;;;;;9.83;6.27;;;0.80;99.90;;;;;;5071945;28;20346;-64
2021/01/08 01:26:15;;;;;;;12.77;7.83;;;0.90;99.90;;;;;;5071596;28;20261;-63
2021/01/08 01:28:42;;;;;;;41.50;24.47;;;0.90;99.90;;;;;;5071832;28;20648;-64
2021/01/08 01:31:09;;;;;;;165.53;82.93;;;0.90;99.90;;;;;;5071788;28;20623;-64
2021/01/08 01:33:36;;;;;;;177.10;85.47;;;0.90;99.90;;;;;;5071548;28;20206;-63
2021/01/08 01:36:05;;;;;;;200.97;107.87;;;0.90;99.90;;;;;;5071247;28;20190;-64
2021/01/08 01:38:32;;;;;;;202.63;110.70;;;0.90;99.90;;;;;;5071446;28;20243;-65
2021/01/08 01:40:58;;;;;;;275.67;137.17;;;0.90;99.90;;;;;;5070963;28;20268;-63
2021/01/08 01:43:25;;;;;;;192.40;91.70;;;0.90;99.90;;;;;;5071924;28;20605;-61
2021/01/08 01:45:52;;;;;;;120.80;61.10;;;0.90;99.90;;;;;;5071401;28;20631;-64
2021/01/08 01:48:19;;;;;;;99.53;49.50;;;0.90;99.90;;;;;;5071381;28;20227;-62
2021/01/08 01:50:47;;;;;;;25.70;14.40;;;0.90;99.90;;;;;;5071317;28;20218;-64
2021/01/08 01:53:13;;;;;;;15.03;8.27;;;0.90;99.90;;;;;;5071125;28;20317;-64
2021/01/08 01:55:40;;;;;;;15.60;7.77;;;0.90;99.90;;;;;;5071425;28;20277;-62
2021/01/08 01:58:07;;;;;;;10.87;6.53;;;0.90;99.90;;;;;;5071122;28;20267;-63
2021/01/08 02:00:34;;;;;;;7.90;4.43;;;0.80;99.90;;;;;;5071125;28;20225;-62
2021/01/08 02:03:07;;;;;;;6.30;4.07;;;0.80;99.90;;;;;;5071180;28;20217;-64
2021/01/08 02:05:34;;;;;;;5.80;3.50;;;0.80;99.90;;;;;;5070474;28;20183;-64
2021/01/08 02:08:04;;;;;;;4.17;3.27;;;0.90;99.90;;;;;;5070676;28;20222;-62
2021/01/08 02:10:36;;;;;;;4.17;2.93;;;0.80;99.90;;;;;;5071409;28;20578;-63
2021/01/08 02:13:03;;;;;;;5.77;3.13;;;0.80;99.90;;;;;;5071168;28;20555;-63
2021/01/08 02:15:30;;;;;;;4.27;3.23;;;0.80;99.90;;;;;;5071357;28;20195;-63
2021/01/08 02:18:00;;;;;;;4.83;3.30;;;0.80;99.90;;;;;;5071365;28;20702;-62
2021/01/08 02:20:26;;;;;;;4.37;3.13;;;0.80;99.90;;;;;;5071710;28;20183;-64
2021/01/08 02:23:00;;;;;;;4.07;2.90;;;0.80;99.90;;;;;;5071511;28;20290;-63
2021/01/08 02:25:30;;;;;;;5.10;2.77;;;0.80;99.90;;;;;;5071400;28;20214;-65
2021/01/08 02:28:19;;;;;;;3.93;2.87;;;0.80;99.90;;;;;;5068146;28;20222;-61
2021/01/08 02:30:46;;;;;;;4.30;2.77;;;0.80;99.90;;;;;;5066967;28;20230;-64
2021/01/08 02:33:14;;;;;;;4.73;3.10;;;0.80;99.90;;;;;;5071102;28;20269;-62
2021/01/08 02:35:41;;;;;;;5.97;3.97;;;0.90;99.90;;;;;;5071115;28;20227;-65
2021/01/08 02:38:08;;;;;;;5.33;3.20;;;0.90;99.90;;;;;;5070927;28;20609;-63
2021/01/08 02:40:36;;;;;;;4.20;3.10;;;0.80;99.90;;;;;;5071049;28;20668;-63
2021/01/08 02:43:04;;;;;;;5.63;3.57;;;0.80;99.90;;;;;;5070943;28;20250;-64
2021/01/08 02:45:31;;;;;;;5.77;3.50;;;0.90;99.90;;;;;;5071135;28;20546;-63
2021/01/08 02:47:59;;;;;;;7.73;3.10;;;0.80;99.90;;;;;;5070843;28;20223;-62
2021/01/08 02:50:26;;;;;;;6.20;3.17;;;0.80;99.90;;;;;;5073388;28;20635;-63
2021/01/08 02:52:57;;;;;;;7.60;3.27;;;0.90;99.90;;;;;;5074959;28;20231;-64
2021/01/08 02:55:29;;;;;;;4.27;3.37;;;0.80;99.90;;;;;;5074006;28;20179;-65
2021/01/08 02:57:58;;;;;;;4.47;2.53;;;0.80;99.90;;;;;;5071778;28;20293;-65
2021/01/08 03:00:26;;;;;;;4.40;2.97;;;0.80;99.90;;;;;;5074424;28;20219;-63
2021/01/08 03:02:53;;;;;;;5.00;2.97;;;0.80;99.90;;;;;;5074377;28;20221;-63
2021/01/08 03:05:21;;;;;;;5.53;3.70;;;0.80;99.90;;;;;;5074199;28;20187;-62
2021/01/08 03:07:48;;;;;;;4.40;3.07;;;0.80;99.90;;;;;;5073738;28;20198;-62
2021/01/08 03:10:16;;;;;;;4.10;2.70;;;0.80;99.90;;;;;;5074106;28;20270;-63
2021/01/08 03:12:51;;;;;;;3.33;2.57;;;0.80;99.90;;;;;;5073859;28;20369;-63
2021/01/08 03:15:18;;;;;;;4.13;3.00;;;0.80;99.90;;;;;;5074224;28;20225;-62
2021/01/08 03:17:44;;;;;;;4.40;2.93;;;0.80;99.90;;;;;;5073947;28;20274;-63
2021/01/08 03:20:12;;;;;;;3.80;2.60;;;0.80;99.90;;;;;;5074122;28;20219;-63
2021/01/08 03:22:38;;;;;;;4.30;3.10;;;0.80;99.90;;;;;;5074409;28;20230;-64
2021/01/08 03:25:06;;;;;;;3.90;3.03;;;0.80;99.90;;;;;;5073493;28;20218;-63
2021/01/08 03:27:32;;;;;;;3.97;2.43;;;0.80;99.90;;;;;;5073996;28;20216;-61
2021/01/08 03:29:58;;;;;;;5.23;3.00;;;0.80;99.90;;;;;;5073649;28;20274;-63
2021/01/08 03:32:26;;;;;;;4.83;3.10;;;0.90;99.90;;;;;;5074189;28;20245;-63
2021/01/08 03:34:52;;;;;;;4.67;3.07;;;0.80;99.90;;;;;;5074160;28;20305;-64
2021/01/08 03:37:19;;;;;;;3.27;2.73;;;0.80;99.90;;;;;;5073952;28;20223;-65
2021/01/08 03:39:45;;;;;;;5.97;3.47;;;0.80;99.90;;;;;;5073446;28;20583;-62
2021/01/08 03:42:11;;;;;;;4.83;3.37;;;0.80;99.90;;;;;;5073873;28;20281;-62
2021/01/08 03:44:38;;;;;;;5.33;3.27;;;0.80;99.90;;;;;;5074273;28;20253;-64
2021/01/08 03:47:04;;;;;;;6.23;3.50;;;0.80;99.90;;;;;;5073646;28;20270;-63
2021/01/08 03:49:37;;;;;;;4.20;3.33;;;0.80;99.90;;;;;;5073813;28;20199;-63
2021/01/08 03:52:04;;;;;;;5.90;3.40;;;0.90;99.90;;;;;;5073038;28;20191;-64
2021/01/08 03:54:31;;;;;;;4.80;2.97;;;0.80;99.90;;;;;;5072936;28;20701;-63
2021/01/08 03:56:58;;;;;;;4.60;2.90;;;0.90;99.90;;;;;;5073183;28;20274;-64
2021/01/08 03:59:24;;;;;;;4.37;3.10;;;0.90;99.90;;;;;;5073301;28;20262;-64
2021/01/08 04:01:51;;;;;;;6.13;3.37;;;0.90;99.90;;;;;;5073316;28;20291;-63
2021/01/08 04:04:17;;;;;;;4.60;3.03;;;0.90;99.90;;;;;;5073618;28;20286;-63
2021/01/08 04:06:44;;;;;;;5.80;3.50;;;0.90;99.90;;;;;;5072970;28;20231;-63
2021/01/08 04:09:11;;;;;;;5.20;3.27;;;0.90;99.90;;;;;;5073030;28;20191;-64
2021/01/08 04:11:37;;;;;;;6.13;3.40;;;0.90;99.90;;;;;;5072689;28;20218;-63
2021/01/08 04:14:04;;;;;;;5.53;3.70;;;0.90;99.90;;;;;;5073291;28;20250;-62
2021/01/08 04:16:34;;;;;;;5.20;3.30;;;0.80;99.90;;;;;;5073139;28;20265;-63
2021/01/08 04:19:00;;;;;;;4.90;3.70;;;0.90;99.90;;;;;;5072935;28;20270;-63
2021/01/08 04:21:27;;;;;;;4.70;3.47;;;0.90;99.90;;;;;;5072896;28;20230;-63
2021/01/08 04:23:54;;;;;;;5.00;3.20;;;0.90;99.90;;;;;;5072742;28;20230;-66
2021/01/08 04:26:22;;;;;;;5.13;3.20;;;0.90;99.90;;;;;;5069966;28;20222;-63
2021/01/08 04:28:48;;;;;;;5.33;3.57;;;0.90;99.90;;;;;;5052957;28;20223;-64
2021/01/08 04:31:15;;;;;;;4.37;3.10;;;0.90;99.90;;;;;;5052803;28;20238;-64
2021/01/08 04:33:41;;;;;;;4.43;3.40;;;0.90;99.90;;;;;;5052689;28;20255;-65
2021/01/08 04:36:08;;;;;;;7.37;3.53;;;0.90;99.90;;;;;;5053054;28;20227;-63
2021/01/08 04:38:35;;;;;;;6.13;3.53;;;0.90;99.90;;;;;;5070945;28;20186;-63
2021/01/08 04:41:03;;;;;;;4.03;2.93;;;0.90;99.90;;;;;;5071692;28;20226;-62
2021/01/08 04:43:30;;;;;;;4.33;3.07;;;0.90;99.90;;;;;;5070548;28;20234;-64
2021/01/08 04:46:02;;;;;;;5.57;3.30;;;0.80;99.90;;;;;;5072422;28;20278;-62
2021/01/08 04:48:30;;;;;;;5.30;2.97;;;0.90;99.90;;;;;;5072262;28;20225;-64
2021/01/08 04:51:02;;;;;;;4.27;2.97;;;0.90;99.90;;;;;;5072721;28;20230;-63
2021/01/08 04:53:29;;;;;;;7.47;3.60;;;0.90;99.90;;;;;;5072055;28;20206;-63
2021/01/08 04:55:57;;;;;;;5.03;3.20;;;0.90;99.90;;;;;;5072337;28;20226;-64
2021/01/08 04:58:25;;;;;;;6.07;3.30;;;0.90;99.90;;;;;;5072196;28;20237;-62
2021/01/08 05:00:53;;;;;;;5.73;3.20;;;0.90;99.90;;;;;;5072148;28;20688;-63
2021/01/08 05:03:20;;;;;;;5.53;3.30;;;0.90;99.90;;;;;;5072113;28;20637;-64
2021/01/08 05:05:46;;;;;;;5.87;3.80;;;1.00;99.90;;;;;;5072016;28;20689;-62
2021/01/08 05:08:13;;;;;;;6.07;4.00;;;0.90;99.90;;;;;;5071802;28;20223;-64
2021/01/08 05:10:39;;;;;;;5.70;3.70;;;0.90;99.90;;;;;;5071948;28;20270;-64
2021/01/08 05:13:05;;;;;;;4.93;3.57;;;0.90;99.90;;;;;;5070699;28;20225;-64
2021/01/08 05:15:33;;;;;;;6.60;3.83;;;0.90;99.90;;;;;;5071977;28;20223;-64
2021/01/08 05:18:00;;;;;;;4.13;3.30;;;0.90;99.90;;;;;;5071708;28;20210;-63
2021/01/08 05:20:27;;;;;;;6.10;3.60;;;0.90;99.90;;;;;;5072341;28;20197;-64
2021/01/08 05:22:56;;;;;;;5.43;3.80;;;0.90;99.90;;;;;;5071818;28;20230;-64
2021/01/08 05:25:23;;;;;;;4.40;3.23;;;0.90;99.90;;;;;;5054020;28;20235;-63
2021/01/08 05:27:50;;;;;;;4.40;3.20;;;0.90;99.90;;;;;;5071676;28;20674;-64
2021/01/08 05:30:17;;;;;;;5.40;3.57;;;0.90;99.90;;;;;;5071892;28;20223;-64
2021/01/08 05:32:45;;;;;;;5.90;3.83;;;0.90;99.90;;;;;;5072062;28;20269;-66
2021/01/08 05:35:16;;;;;;;6.47;4.20;;;0.90;99.90;;;;;;5071636;28;20222;-63
2021/01/08 05:37:47;;;;;;;6.80;3.83;;;1.00;99.90;;;;;;5070240;28;20180;-63
2021/01/08 05:40:14;;;;;;;8.27;3.97;;;1.00;99.90;;;;;;5070917;28;20206;-66
2021/01/08 05:42:53;;;;;;;4.80;3.50;;;1.00;99.90;;;;;;5071219;28;20608;-64
2021/01/08 05:45:20;;;;;;;5.23;3.43;;;1.00;99.90;;;;;;5071042;28;20237;-63
2021/01/08 05:47:48;;;;;;;6.00;3.53;;;1.00;99.90;;;;;;5071773;28;20195;-62
2021/01/08 05:50:16;;;;;;;8.83;4.23;;;1.00;99.90;;;;;;5071445;28;20291;-62
2021/01/08 05:52:45;;;;;;;7.07;3.67;;;1.00;99.90;;;;;;5070719;28;20234;-63
2021/01/08 05:55:12;;;;;;;4.90;3.10;;;1.00;99.90;;;;;;5071280;28;20257;-62
2021/01/08 05:57:40;;;;;;;5.10;3.00;;;1.00;99.90;;;;;;5071775;28;20678;-65
2021/01/08 06:00:09;;;;;;;6.00;3.40;;;1.00;99.90;;;;;;5072241;28;20266;-64
2021/01/08 06:02:36;;;;;;;6.03;3.20;;;1.00;99.90;;;;;;5071567;28;20198;-64
2021/01/08 06:05:07;;;;;;;5.67;3.80;;;1.00;99.90;;;;;;5071463;28;20206;-62
2021/01/08 06:07:37;;;;;;;7.27;3.90;;;1.00;99.90;;;;;;5071364;28;20280;-64
2021/01/08 06:10:06;;;;;;;6.30;3.50;;;1.00;99.90;;;;;;5070868;28;20240;-61
2021/01/08 06:12:36;;;;;;;6.17;3.87;;;1.00;99.90;;;;;;5071361;28;20256;-64
2021/01/08 06:15:06;;;;;;;5.30;3.57;;;1.00;99.90;;;;;;5071383;28;20293;-63
2021/01/08 06:17:34;;;;;;;6.77;4.10;;;1.00;99.90;;;;;;5071378;28;20413;-64
2021/01/08 06:20:04;;;;;;;4.60;3.13;;;1.00;99.90;;;;;;5071567;28;20666;-65
2021/01/08 06:22:37;;;;;;;5.73;3.67;;;1.00;99.90;;;;;;5071355;28;20260;-63
2021/01/08 06:25:06;;;;;;;6.70;4.10;;;1.00;99.90;;;;;;5074912;28;20244;-65
2021/01/08 06:27:35;;;;;;;7.70;3.80;;;1.00;99.90;;;;;;5075626;28;20266;-63
2021/01/08 06:30:03;;;;;;;10.60;4.40;;;1.00;99.90;;;;;;5075789;28;20183;-63
2021/01/08 06:32:31;;;;;;;6.37;3.70;;;0.90;99.90;;;;;;5075586;28;20234;-64
2021/01/08 06:35:05;;;;;;;6.40;3.83;;;1.00;99.90;;;;;;5075042;28;20246;-62
2021/01/08 06:37:41;;;;;;;7.63;3.77;;;1.00;99.90;;;;;;5062828;28;20558;-63
2021/01/08 06:40:09;;;;;;;7.13;4.07;;;1.00;99.90;;;;;;5075314;28;20187;-65
2021/01/08 06:42:45;;;;;;;8.77;4.53;;;1.00;99.90;;;;;;5074998;28;20234;-63
2021/01/08 06:45:14;;;;;;;8.77;4.47;;;1.00;99.90;;;;;;5075142;28;20209;-62
2021/01/08 06:47:47;;;;;;;8.53;4.07;;;1.00;99.90;;;;;;5074463;28;20633;-64
2021/01/08 06:50:19;;;;;;;7.90;4.87;;;1.00;99.90;;;;;;5075242;28;20815;-65
2021/01/08 06:52:46;;;;;;;7.77;4.70;;;1.10;99.90;;;;;;5074684;28;20274;-62
2021/01/08 06:55:18;;;;;;;8.73;4.80;;;1.10;99.90;;;;;;5074289;28;20292;-62
2021/01/08 06:57:53;;;;;;;6.93;4.30;;;1.00;99.90;;;;;;5073943;28;20187;-64
2021/01/08 07:00:26;;;;;;;6.67;4.03;;;1.10;99.90;;;;;;5075114;28;20281;-63
2021/01/08 07:02:57;;;;;;;9.23;4.57;;;1.10;99.90;;;;;;5075005;28;20255;-63
2021/01/08 07:05:25;;;;;;;7.67;4.90;;;1.10;99.90;;;;;;5074879;28;20240;-62
2021/01/08 07:07:54;;;;;;;8.13;5.17;;;1.10;99.90;;;;;;5074477;28;20229;-64
2021/01/08 07:10:20;;;;;;;8.10;4.97;;;1.10;99.90;;;;;;5075087;28;20214;-65
2021/01/08 07:12:54;;;;;;;9.37;4.90;;;1.10;99.90;;;;;;5074570;28;20620;-62
2021/01/08 07:15:21;;;;;;;8.93;4.83;;;1.10;99.90;;;;;;5074651;28;20199;-62
2021/01/08 07:17:54;;;;;;;8.83;5.37;;;1.10;99.90;;;;;;5074563;28;20231;-64
2021/01/08 07:20:21;;;;;;;7.83;4.87;;;1.10;99.90;;;;;;5074680;28;20215;-64
2021/01/08 07:22:54;;;;;;;6.43;4.90;;;1.10;99.90;;;;;;5073821;28;20230;-64
2021/01/08 07:25:24;;;;;;;8.67;4.73;;;1.10;99.90;;;;;;5073792;28;20223;-64
2021/01/08 07:27:52;;;;;;;9.30;4.43;;;1.10;99.90;;;;;;5073901;28;20522;-61
2021/01/08 07:30:20;;;;;;;9.07;5.13;;;1.10;99.90;;;;;;5073418;28;20599;-61
2021/01/08 07:32:47;;;;;;;6.63;4.63;;;1.10;99.90;;;;;;5074473;28;20654;-63
2021/01/08 07:35:18;;;;;;;11.00;5.60;;;1.20;99.90;;;;;;5073949;28;20218;-65
2021/01/08 07:38:04;;;;;;;8.73;4.87;;;1.20;99.90;;;;;;5074275;28;20533;-64
2021/01/08 07:40:31;;;;;;;7.30;4.80;;;1.20;99.90;;;;;;5074188;28;20194;-63
2021/01/08 07:43:02;;;;;;;10.67;5.17;;;1.20;99.90;;;;;;5073800;28;20631;-62
2021/01/08 07:45:45;;;;;;;8.37;5.13;;;1.20;99.90;;;;;;5074337;28;20253;-62
2021/01/08 07:48:23;;;;;;;10.53;5.50;;;1.20;99.90;;;;;;5073172;28;20183;-63
2021/01/08 07:50:54;;;;;;;10.30;5.33;;;1.20;99.90;;;;;;5063692;28;20219;-63
2021/01/08 07:53:54;;;;;;;8.17;4.90;;;1.20;99.90;;;;;;5073423;28;20219;-62
2021/01/08 07:56:22;;;;;;;8.53;5.13;;;1.20;99.90;;;;;;5026165;28;20283;-64
2021/01/08 07:58:58;;;;;;;9.80;5.23;;;1.10;99.90;;;;;;5031775;28;20184;-66
2021/01/08 08:01:24;;;;;;;9.17;5.23;;;1.20;99.90;;;;;;5043237;28;20191;-63
2021/01/08 08:03:57;;;;;;;9.70;5.60;;;1.20;99.90;;;;;;5072175;28;20629;-64
2021/01/08 08:06:25;;;;;;;7.90;5.33;;;1.20;99.90;;;;;;5067689;28;20191;-65
2021/01/08 08:08:54;;;;;;;7.80;4.83;;;1.20;99.90;;;;;;5073650;28;20214;-66
2021/01/08 08:11:25;;;;;;;9.20;5.30;;;1.20;99.90;;;;;;5073839;28;20223;-63
2021/01/08 08:13:52;;;;;;;6.97;4.40;;;1.20;99.90;;;;;;5073430;28;20700;-62
2021/01/08 08:16:29;;;;;;;10.10;4.90;;;1.20;99.90;;;;;;5073476;28;20278;-64
2021/01/08 08:18:55;;;;;;;7.53;4.57;;;1.20;99.90;;;;;;5072885;28;20647;-65
2021/01/08 08:21:21;;;;;;;6.13;4.20;;;1.20;99.90;;;;;;5072855;28;20241;-62
2021/01/08 08:23:59;;;;;;;7.17;4.93;;;1.30;99.90;;;;;;5074129;28;20203;-63
2021/01/08 08:26:27;;;;;;;9.37;5.30;;;1.30;99.90;;;;;;5073169;28;20619;-63
2021/01/08 08:29:01;;;;;;;10.80;4.67;;;1.30;99.90;;;;;;5072960;28;20233;-61
2021/01/08 08:31:29;;;;;;;8.43;4.77;;;1.30;99.90;;;;;;5073330;28;20210;-62
2021/01/08 08:33:56;;;;;;;8.57;5.00;;;1.30;99.90;;;;;;5072292;28;20761;-66
2021/01/08 08:36:23;;;;;;;9.60;4.87;;;1.30;99.90;;;;;;5073025;28;20238;-65
2021/01/08 08:38:58;;;;;;;10.60;5.43;;;1.30;99.90;;;;;;5072716;28;20207;-63
2021/01/08 08:41:24;;;;;;;8.13;5.13;;;1.30;99.90;;;;;;5073161;28;20331;-64
2021/01/08 08:44:09;;;;;;;9.70;5.07;;;1.40;99.90;;;;;;5072584;28;20202;-63
2021/01/08 08:46:41;;;;;;;7.77;4.90;;;1.30;99.90;;;;;;5072552;28;20244;-65
2021/01/08 08:49:07;;;;;;;8.00;4.67;;;1.40;99.90;;;;;;5071534;28;20179;-65
2021/01/08 08:51:34;;;;;;;8.47;4.80;;;1.40;99.90;;;;;;5093550;28;20284;-65
2021/01/08 08:54:03;;;;;;;7.37;4.93;;;1.40;99.90;;;;;;5073311;28;20287;-62
2021/01/08 08:56:29;;;;;;;9.47;4.97;;;1.40;99.90;;;;;;5073192;28;20291;-63
2021/01/08 08:58:56;;;;;;;9.20;4.93;;;1.40;99.90;;;;;;5072242;28;20218;-65
2021/01/08 09:01:22;;;;;;;9.23;4.90;;;1.40;99.90;;;;;;5072142;28;20191;-65
2021/01/08 09:03:49;;;;;;;7.73;4.60;;;1.40;99.90;;;;;;5072038;28;20230;-62
2021/01/08 09:06:16;;;;;;;9.73;5.30;;;1.40;99.90;;;;;;5072104;28;20282;-64
2021/01/08 09:08:45;;;;;;;7.80;4.47;;;1.40;99.90;;;;;;5071621;28;20183;-65
2021/01/08 09:11:24;;;;;;;6.63;4.53;;;1.50;99.90;;;;;;5071503;28;20651;-62
2021/01/08 09:13:55;;;;;;;6.63;4.60;;;1.50;99.90;;;;;;5071696;28;20229;-65
2021/01/08 09:16:28;;;;;;;8.67;5.27;;;1.50;99.90;;;;;;5070232;28;20710;-64
2021/01/08 09:19:06;;;;;;;8.50;4.80;;;1.50;99.90;;;;;;5072312;28;20226;-64
2021/01/08 09:21:34;;;;;;;8.83;4.07;;;1.50;99.90;;;;;;5070952;28;20329;-62
2021/01/08 09:24:03;;;;;;;6.73;4.10;;;1.40;99.90;;;;;;5071243;28;20222;-64
2021/01/08 09:26:31;;;;;;;9.80;5.10;;;1.40;99.90;;;;;;5071629;28;20198;-65
2021/01/08 09:28:58;;;;;;;7.17;4.10;;;1.40;99.90;;;;;;5071974;28;20233;-65
2021/01/08 09:31:38;;;;;;;8.83;4.60;;;1.40;99.90;;;;;;5072176;28;20242;-62
2021/01/08 09:34:05;;;;;;;8.57;4.67;;;1.40;99.90;;;;;;5071577;28;20239;-65
2021/01/08 09:36:33;;;;;;;7.33;3.83;;;1.30;99.90;;;;;;5071617;28;20340;-64
2021/01/08 09:39:01;;;;;;;8.73;4.57;;;1.30;99.90;;;;;;5071306;28;20190;-64
2021/01/08 09:41:30;;;;;;;7.87;4.93;;;1.40;99.90;;;;;;5071094;28;20226;-61
2021/01/08 09:43:59;;;;;;;10.00;5.33;;;1.40;99.90;;;;;;5070741;28;20232;-68
2021/01/08 09:46:26;;;;;;;8.07;4.53;;;1.40;99.90;;;;;;5071471;28;20230;-63
2021/01/08 09:48:52;;;;;;;8.70;4.97;;;1.40;99.90;;;;;;5070966;28;20195;-62
2021/01/08 09:51:18;;;;;;;7.77;4.77;;;1.40;99.90;;;;;;5070643;28;20270;-66
2021/01/08 09:53:54;;;;;;;12.20;5.00;;;1.40;99.90;;;;;;5071381;28;20214;-65
2021/01/08 09:56:21;;;;;;;7.50;4.73;;;1.40;99.90;;;;;;5071232;28;20186;-64
2021/01/08 09:59:08;;;;;;;8.37;4.87;;;1.40;99.90;;;;;;5069761;28;20614;-65
2021/01/08 10:01:53;;;;;;;7.00;4.77;;;1.40;99.90;;;;;;5071397;28;20230;-64
2021/01/08 10:04:28;;;;;;;8.83;4.27;;;1.40;99.90;;;;;;5070969;28;20183;-65
2021/01/08 10:06:59;;;;;;;10.07;4.80;;;1.50;99.90;;;;;;5070601;28;20201;-67
2021/01/08 10:09:26;;;;;;;9.03;5.17;;;1.50;99.90;;;;;;5055610;28;20622;-63
2021/01/08 10:12:00;;;;;;;9.13;4.90;;;1.50;99.90;;;;;;5072171;28;20230;-64
2021/01/08 10:14:30;;;;;;;9.57;4.50;;;1.50;99.90;;;;;;5070431;28;20302;-64
2021/01/08 10:17:09;;;;;;;8.10;4.77;;;1.50;99.90;;;;;;5071346;28;20227;-66
2021/01/08 10:19:36;;;;;;;8.97;4.03;;;1.60;99.90;;;;;;5071185;28;20187;-62
2021/01/08 10:22:03;;;;;;;7.60;4.63;;;1.60;99.90;;;;;;5067073;28;20219;-65
2021/01/08 10:24:29;;;;;;;10.27;4.57;;;1.50;99.90;;;;;;5051193;28;20242;-65
2021/01/08 10:26:56;;;;;;;9.63;5.30;;;1.50;99.90;;;;;;5070215;28;20219;-64
2021/01/08 10:29:30;;;;;;;10.23;5.20;;;1.50;99.90;;;;;;5071204;28;20175;-63
2021/01/08 10:31:57;;;;;;;9.93;5.00;;;1.50;99.90;;;;;;5063705;28;20230;-66
2021/01/08 10:34:25;;;;;;;15.13;5.70;;;1.60;99.90;;;;;;5050839;28;20253;-65
2021/01/08 10:36:52;;;;;;;9.07;5.20;;;1.60;99.90;;;;;;5051503;28;20230;-63
2021/01/08 10:39:18;;;;;;;10.03;5.17;;;1.60;99.90;;;;;;5051534;28;20270;-67
2021/01/08 10:41:44;;;;;;;7.80;4.83;;;1.60;99.90;;;;;;5060420;28;20230;-65
2021/01/08 10:44:11;;;;;;;10.03;4.97;;;1.60;99.90;;;;;;5057475;28;20278;-65
2021/01/08 10:46:38;;;;;;;8.23;4.67;;;1.70;99.90;;;;;;5070625;28;20226;-64
2021/01/08 10:49:06;;;;;;;7.57;5.17;;;1.70;99.90;;;;;;5071615;28;20240;-62
2021/01/08 10:51:33;;;;;;;10.40;5.70;;;1.80;99.90;;;;;;5070824;28;20250;-67
2021/01/08 10:53:59;;;;;;;10.27;5.43;;;1.90;99.90;;;;;;5070983;28;20724;-66
2021/01/08 10:56:28;;;;;;;9.30;5.43;;;1.80;99.90;;;;;;5071011;28;20218;-64
2021/01/08 10:58:55;;;;;;;14.23;6.23;;;1.80;99.90;;;;;;5071655;28;20594;-63
2021/01/08 11:01:21;;;;;;;11.43;5.93;;;1.80;99.90;;;;;;5053281;28;20229;-67
2021/01/08 11:03:48;;;;;;;10.73;5.60;;;1.80;99.90;;;;;;5051958;28;20257;-66
2021/01/08 11:06:18;;;;;;;10.70;6.43;;;1.70;99.90;;;;;;5071087;28;20343;-66
2021/01/08 11:08:45;;;;;;;10.97;6.13;;;1.70;99.90;;;;;;5070896;28;20195;-64
2021/01/08 11:11:12;;;;;;;9.90;5.47;;;1.70;99.90;;;;;;5073455;28;20230;-64
2021/01/08 11:13:38;;;;;;;24.87;9.80;;;1.60;99.90;;;;;;5074599;28;20238;-63
2021/01/08 11:16:06;;;;;;;14.63;6.40;;;1.60;99.90;;;;;;5074030;28;20658;-65
2021/01/08 11:18:33;;;;;;;8.93;5.10;;;1.60;99.90;;;;;;5061180;28;20194;-63
2021/01/08 11:20:59;;;;;;;9.37;4.50;;;1.60;99.90;;;;;;5068593;28;20596;-64
2021/01/08 11:23:25;;;;;;;9.73;4.57;;;1.60;99.90;;;;;;5074203;28;20295;-67
2021/01/08 11:25:53;;;;;;;10.03;5.40;;;1.60;99.90;;;;;;5074194;28;20238;-63
2021/01/08 11:28:19;;;;;;;9.17;4.70;;;1.60;99.90;;;;;;5067716;28;20270;-63
2021/01/08 11:30:46;;;;;;;13.20;5.10;;;1.60;99.90;;;;;;5055161;28;20227;-65
2021/01/08 11:33:12;;;;;;;13.17;5.70;;;1.60;99.90;;;;;;5054392;28;20683;-69
2021/01/08 11:35:38;;;;;;;11.77;5.80;;;1.70;99.90;;;;;;5061692;28;20293;-64
2021/01/08 11:38:05;;;;;;;10.77;5.77;;;1.70;99.90;;;;;;5073481;28;20223;-62
2021/01/08 11:40:31;;;;;;;10.50;6.20;;;1.70;99.90;;;;;;5074143;28;20655;-63
2021/01/08 11:42:59;;;;;;;10.80;5.60;;;1.80;99.90;;;;;;5074566;28;20326;-64
2021/01/08 11:45:25;;;;;;;7.63;4.17;;;1.70;99.90;;;;;;5074097;28;20226;-63
2021/01/08 11:47:52;;;;;;;7.47;3.57;;;1.60;99.90;;;;;;5072574;28;20227;-63
2021/01/08 11:50:18;;;;;;;9.13;3.80;;;1.50;99.90;;;;;;5069936;28;20226;-65
2021/01/08 11:52:45;;;;;;;6.10;3.60;;;1.40;99.90;;;;;;5066718;28;20270;-65
2021/01/08 11:55:11;;;;;;;8.03;4.20;;;1.40;99.90;;;;;;5069965;28;20656;-63
2021/01/08 11:57:39;;;;;;;6.73;3.90;;;1.50;99.90;;;;;;5069326;28;20222;-65
2021/01/08 12:00:08;;;;;;;7.83;4.33;;;1.50;99.90;;;;;;5069274;28;20179;-63
2021/01/08 12:02:34;;;;;;;7.60;3.90;;;1.50;99.90;;;;;;5062129;28;20673;-64
2021/01/08 12:05:01;;;;;;;7.67;3.73;;;1.60;99.90;;;;;;5061325;28;20286;-65
2021/01/08 12:07:28;;;;;;;8.13;4.37;;;1.50;99.90;;;;;;5068597;28;20706;-66
2021/01/08 12:09:56;;;;;;;8.83;4.63;;;1.50;99.90;;;;;;5073820;28;20705;-65
2021/01/08 12:12:22;;;;;;;7.37;4.40;;;1.60;99.90;;;;;;5074108;28;20278;-67
2021/01/08 12:14:48;;;;;;;7.07;4.43;;;1.60;99.90;;;;;;5073649;28;20507;-64
2021/01/08 12:17:16;;;;;;;8.77;4.40;;;1.60;99.90;;;;;;5073249;28;20293;-64
2021/01/08 12:19:42;;;;;;;7.50;3.97;;;1.60;99.90;;;;;;5073770;28;20218;-63
2021/01/08 12:22:10;;;;;;;10.57;5.10;;;1.70;99.90;;;;;;5072620;28;20274;-65
2021/01/08 12:24:37;;;;;;;14.53;6.37;;;1.70;99.90;;;;;;5073377;28;20191;-65
2021/01/08 12:27:04;;;;;;;14.20;6.50;;;1.70;99.90;;;;;;5067909;28;20192;-65
2021/01/08 12:29:33;;;;;;;12.50;6.20;;;1.70;99.90;;;;;;5067329;28;20183;-64
2021/01/08 12:32:01;;;;;;;13.80;6.07;;;1.70;99.90;;;;;;5069019;28;20191;-62
2021/01/08 12:34:28;;;;;;;10.43;5.27;;;1.60;99.90;;;;;;5053464;28;20219;-63
2021/01/08 12:36:56;;;;;;;9.03;5.10;;;1.60;99.90;;;;;;5071436;28;20340;-64
2021/01/08 12:39:22;;;;;;;9.80;4.63;;;1.50;99.90;;;;;;5073509;28;20221;-64
2021/01/08 12:41:49;;;;;;;10.63;5.20;;;1.50;99.90;;;;;;5059676;28;20231;-65
2021/01/08 12:44:15;;;;;;;8.57;5.20;;;1.50;99.90;;;;;;5053171;28;20239;-66
2021/01/08 12:46:42;;;;;;;9.13;5.07;;;1.50;99.90;;;;;;5053304;28;20257;-67
2021/01/08 12:49:08;;;;;;;10.10;4.97;;;1.50;99.90;;;;;;5066975;28;20662;-66
2021/01/08 12:51:36;;;;;;;8.23;4.67;;;1.50;99.90;;;;;;5070807;28;20759;-65
2021/01/08 12:54:03;;;;;;;10.07;4.70;;;1.50;99.90;;;;;;5058524;28;20203;-66
2021/01/08 12:56:31;;;;;;;8.33;4.80;;;1.40;99.90;;;;;;5058085;28;20192;-63
2021/01/08 12:58:59;;;;;;;9.93;5.40;;;1.40;99.90;;;;;;5057635;28;20263;-65
2021/01/08 13:01:25;;;;;;;12.43;6.37;;;1.40;99.90;;;;;;5069655;28;20191;-66